sensor_id;sensor_type;location;lat;lon;timestamp;temperature;humidity
32428;DHT22;18882;50.952;4.366;2022-08-06T00:00:31;14.60;99.90
32428;DHT22;18882;50.952;4.366;2022-08-06T00:02:57;14.60;99.90
32428;DHT22;18882;50.952;4.366;2022-08-06T00:05:22;14.60;99.90
32428;DHT22;18882;50.952;4.366;2022-08-06T00:07:48;14.50;99.90
32428;DHT22;18882;50.952;4.366;2022-08-06T00:10:18;14.50;99.90
32428;DHT22;18882;50.952;4.366;2022-08-06T00:12:44;14.40;99.90
32428;DHT22;18882;50.952;4.366;2022-08-06T00:15:10;14.40;99.90
32428;DHT22;18882;50.952;4.366;2022-08-06T00:17:36;14.30;99.90
32428;DHT22;18882;50.952;4.366;2022-08-06T00:20:05;14.40;99.90
32428;DHT22;18882;50.952;4.366;2022-08-06T00:22:30;14.40;99.90
32428;DHT22;18882;50.952;4.366;2022-08-06T00:24:57;14.40;99.90
32428;DHT22;18882;50.952;4.366;2022-08-06T00:27:23;14.30;99.90
32428;DHT22;18882;50.952;4.366;2022-08-06T00:29:49;14.30;99.90
32428;DHT22;18882;50.952;4.366;2022-08-06T00:32:15;14.20;99.90
32428;DHT22;18882;50.952;4.366;2022-08-06T00:34:41;14.10;99.90
32428;DHT22;18882;50.952;4.366;2022-08-06T00:37:07;14.10;99.90
32428;DHT22;18882;50.952;4.366;2022-08-06T00:39:33;14.10;99.90
32428;DHT22;18882;50.952;4.366;2022-08-06T00:41:58;14.00;99.90
32428;DHT22;18882;50.952;4.366;2022-08-06T00:44:24;13.90;99.90
32428;DHT22;18882;50.952;4.366;2022-08-06T00:46:51;13.90;99.90
32428;DHT22;18882;50.952;4.366;2022-08-06T00:49:17;13.90;99.90
32428;DHT22;18882;50.952;4.366;2022-08-06T00:51:43;13.90;99.90
32428;DHT22;18882;50.952;4.366;2022-08-06T00:54:09;13.90;99.90
32428;DHT22;18882;50.952;4.366;2022-08-06T00:56:35;13.90;99.90
32428;DHT22;18882;50.952;4.366;2022-08-06T00:59:01;13.80;99.90
32428;DHT22;18882;50.952;4.366;2022-08-06T01:01:26;13.70;99.90
32428;DHT22;18882;50.952;4.366;2022-08-06T01:03:52;13.70;99.90
32428;DHT22;18882;50.952;4.366;2022-08-06T01:06:19;13.70;99.90
32428;DHT22;18882;50.952;4.366;2022-08-06T01:08:45;13.80;99.90
32428;DHT22;18882;50.952;4.366;2022-08-06T01:11:11;13.70;99.90
32428;DHT22;18882;50.952;4.366;2022-08-06T01:13:36;13.60;99.90
32428;DHT22;18882;50.952;4.366;2022-08-06T01:16:12;13.50;99.90
32428;DHT22;18882;50.952;4.366;2022-08-06T01:18:59;13.60;99.90
32428;DHT22;18882;50.952;4.366;2022-08-06T01:27:44;13.40;99.90
32428;DHT22;18882;50.952;4.366;2022-08-06T01:30:17;13.40;99.90
32428;DHT22;18882;50.952;4.366;2022-08-06T01:33:02;13.40;99.90
32428;DHT22;18882;50.952;4.366;2022-08-06T01:35:35;13.30;99.90
32428;DHT22;18882;50.952;4.366;2022-08-06T01:38:20;13.30;99.90
32428;DHT22;18882;50.952;4.366;2022-08-06T01:40:49;13.30;99.90
32428;DHT22;18882;50.952;4.366;2022-08-06T01:43:18;13.30;99.90
32428;DHT22;18882;50.952;4.366;2022-08-06T01:45:45;13.30;99.90
32428;DHT22;18882;50.952;4.366;2022-08-06T01:48:19;13.30;99.90
32428;DHT22;18882;50.952;4.366;2022-08-06T01:50:47;13.40;99.90
32428;DHT22;18882;50.952;4.366;2022-08-06T01:53:17;13.30;99.90
32428;DHT22;18882;50.952;4.366;2022-08-06T01:55:47;13.30;99.90
32428;DHT22;18882;50.952;4.366;2022-08-06T01:58:16;13.30;99.90
32428;DHT22;18882;50.952;4.366;2022-08-06T02:00:46;13.40;99.90
32428;DHT22;18882;50.952;4.366;2022-08-06T02:03:20;13.30;99.90
32428;DHT22;18882;50.952;4.366;2022-08-06T02:05:47;13.30;99.90
32428;DHT22;18882;50.952;4.366;2022-08-06T02:08:15;13.30;99.90
32428;DHT22;18882;50.952;4.366;2022-08-06T02:10:42;13.30;99.90
32428;DHT22;18882;50.952;4.366;2022-08-06T02:13:10;13.30;99.90
32428;DHT22;18882;50.952;4.366;2022-08-06T02:15:37;13.40;99.90
32428;DHT22;18882;50.952;4.366;2022-08-06T02:18:05;13.30;99.90
32428;DHT22;18882;50.952;4.366;2022-08-06T02:20:38;13.30;99.90
32428;DHT22;18882;50.952;4.366;2022-08-06T02:23:15;13.30;99.90
32428;DHT22;18882;50.952;4.366;2022-08-06T02:25:42;13.30;99.90
32428;DHT22;18882;50.952;4.366;2022-08-06T02:28:11;13.20;99.90
32428;DHT22;18882;50.952;4.366;2022-08-06T02:30:41;13.20;99.90
32428;DHT22;18882;50.952;4.366;2022-08-06T02:33:07;13.20;99.90
32428;DHT22;18882;50.952;4.366;2022-08-06T02:35:45;13.10;99.90
32428;DHT22;18882;50.952;4.366;2022-08-06T02:38:38;13.20;99.90
32428;DHT22;18882;50.952;4.366;2022-08-06T02:44:05;13.10;99.90
32428;DHT22;18882;50.952;4.366;2022-08-06T02:46:50;13.10;99.90
32428;DHT22;18882;50.952;4.366;2022-08-06T02:49:23;13.10;99.90
32428;DHT22;18882;50.952;4.366;2022-08-06T02:52:01;13.00;99.90
32428;DHT22;18882;50.952;4.366;2022-08-06T02:54:31;13.10;99.90
32428;DHT22;18882;50.952;4.366;2022-08-06T02:57:00;13.10;99.90
32428;DHT22;18882;50.952;4.366;2022-08-06T02:59:30;13.00;99.90
32428;DHT22;18882;50.952;4.366;2022-08-06T03:02:00;12.90;99.90
32428;DHT22;18882;50.952;4.366;2022-08-06T03:04:29;12.90;99.90
32428;DHT22;18882;50.952;4.366;2022-08-06T03:06:57;13.00;99.90
32428;DHT22;18882;50.952;4.366;2022-08-06T03:09:24;13.00;99.90
32428;DHT22;18882;50.952;4.366;2022-08-06T03:11:50;13.00;99.90
32428;DHT22;18882;50.952;4.366;2022-08-06T03:14:17;13.00;99.90
32428;DHT22;18882;50.952;4.366;2022-08-06T03:16:45;13.00;99.90
32428;DHT22;18882;50.952;4.366;2022-08-06T03:19:13;13.00;99.90
32428;DHT22;18882;50.952;4.366;2022-08-06T03:21:41;13.00;99.90
32428;DHT22;18882;50.952;4.366;2022-08-06T03:24:08;12.90;99.90
32428;DHT22;18882;50.952;4.366;2022-08-06T03:26:35;12.90;99.90
32428;DHT22;18882;50.952;4.366;2022-08-06T03:29:02;12.80;99.90
32428;DHT22;18882;50.952;4.366;2022-08-06T03:31:29;12.70;99.90
32428;DHT22;18882;50.952;4.366;2022-08-06T03:33:56;12.80;99.90
32428;DHT22;18882;50.952;4.366;2022-08-06T03:36:23;12.80;99.90
32428;DHT22;18882;50.952;4.366;2022-08-06T03:38:56;12.80;99.90
32428;DHT22;18882;50.952;4.366;2022-08-06T03:41:28;12.80;99.90
32428;DHT22;18882;50.952;4.366;2022-08-06T03:43:54;12.70;99.90
32428;DHT22;18882;50.952;4.366;2022-08-06T03:46:24;12.60;99.90
32428;DHT22;18882;50.952;4.366;2022-08-06T03:48:53;12.60;99.90
32428;DHT22;18882;50.952;4.366;2022-08-06T03:51:23;12.70;99.90
32428;DHT22;18882;50.952;4.366;2022-08-06T03:53:52;12.70;99.90
32428;DHT22;18882;50.952;4.366;2022-08-06T03:56:23;12.70;99.90
32428;DHT22;18882;50.952;4.366;2022-08-06T03:58:52;12.70;99.90
32428;DHT22;18882;50.952;4.366;2022-08-06T04:01:21;12.70;99.90
32428;DHT22;18882;50.952;4.366;2022-08-06T04:03:48;12.60;99.90
32428;DHT22;18882;50.952;4.366;2022-08-06T04:06:17;12.70;99.90
32428;DHT22;18882;50.952;4.366;2022-08-06T04:08:44;12.70;99.90
32428;DHT22;18882;50.952;4.366;2022-08-06T04:11:11;12.70;99.90
32428;DHT22;18882;50.952;4.366;2022-08-06T04:13:37;12.70;99.90
32428;DHT22;18882;50.952;4.366;2022-08-06T04:16:04;12.80;99.90
32428;DHT22;18882;50.952;4.366;2022-08-06T04:18:34;12.80;99.90
32428;DHT22;18882;50.952;4.366;2022-08-06T04:21:02;12.70;99.90
32428;DHT22;18882;50.952;4.366;2022-08-06T04:23:29;12.70;99.90
32428;DHT22;18882;50.952;4.366;2022-08-06T04:25:56;12.70;99.90
32428;DHT22;18882;50.952;4.366;2022-08-06T04:28:24;12.70;99.90
32428;DHT22;18882;50.952;4.366;2022-08-06T04:30:52;12.70;99.90
32428;DHT22;18882;50.952;4.366;2022-08-06T04:33:21;12.70;99.90
32428;DHT22;18882;50.952;4.366;2022-08-06T04:35:48;12.80;99.90
32428;DHT22;18882;50.952;4.366;2022-08-06T04:38:16;12.90;99.90
32428;DHT22;18882;50.952;4.366;2022-08-06T04:40:43;12.90;99.90
32428;DHT22;18882;50.952;4.366;2022-08-06T04:43:10;13.00;99.90
32428;DHT22;18882;50.952;4.366;2022-08-06T04:45:41;13.10;99.90
32428;DHT22;18882;50.952;4.366;2022-08-06T04:48:09;13.10;99.90
32428;DHT22;18882;50.952;4.366;2022-08-06T04:50:36;13.10;99.90
32428;DHT22;18882;50.952;4.366;2022-08-06T04:53:10;13.00;99.90
32428;DHT22;18882;50.952;4.366;2022-08-06T04:55:36;13.20;99.90
32428;DHT22;18882;50.952;4.366;2022-08-06T04:58:04;13.20;99.90
32428;DHT22;18882;50.952;4.366;2022-08-06T05:00:32;13.20;99.90
32428;DHT22;18882;50.952;4.366;2022-08-06T05:02:58;13.30;99.90
32428;DHT22;18882;50.952;4.366;2022-08-06T05:05:24;13.30;99.90
32428;DHT22;18882;50.952;4.366;2022-08-06T05:07:52;13.40;99.90
32428;DHT22;18882;50.952;4.366;2022-08-06T05:10:20;13.50;99.90
32428;DHT22;18882;50.952;4.366;2022-08-06T05:12:49;13.50;99.90
32428;DHT22;18882;50.952;4.366;2022-08-06T05:15:22;13.50;99.90
32428;DHT22;18882;50.952;4.366;2022-08-06T05:17:57;13.50;99.90
32428;DHT22;18882;50.952;4.366;2022-08-06T05:20:25;13.50;99.90
32428;DHT22;18882;50.952;4.366;2022-08-06T05:22:55;13.50;99.90
32428;DHT22;18882;50.952;4.366;2022-08-06T05:25:22;13.50;99.90
32428;DHT22;18882;50.952;4.366;2022-08-06T05:27:48;13.50;99.90
32428;DHT22;18882;50.952;4.366;2022-08-06T05:30:14;13.50;99.90
32428;DHT22;18882;50.952;4.366;2022-08-06T05:32:45;13.60;99.90
32428;DHT22;18882;50.952;4.366;2022-08-06T05:35:12;13.70;99.90
32428;DHT22;18882;50.952;4.366;2022-08-06T05:37:37;13.90;99.90
32428;DHT22;18882;50.952;4.366;2022-08-06T05:40:04;13.90;99.90
32428;DHT22;18882;50.952;4.366;2022-08-06T05:42:30;14.10;99.90
32428;DHT22;18882;50.952;4.366;2022-08-06T05:44:56;14.30;99.90
32428;DHT22;18882;50.952;4.366;2022-08-06T05:47:28;14.40;99.90
32428;DHT22;18882;50.952;4.366;2022-08-06T05:50:15;14.40;99.90
32428;DHT22;18882;50.952;4.366;2022-08-06T05:52:48;14.40;99.90
32428;DHT22;18882;50.952;4.366;2022-08-06T05:55:51;14.50;99.90
32428;DHT22;18882;50.952;4.366;2022-08-06T05:58:25;14.70;99.90
32428;DHT22;18882;50.952;4.366;2022-08-06T06:00:53;14.80;99.90
32428;DHT22;18882;50.952;4.366;2022-08-06T06:03:19;15.00;99.90
32428;DHT22;18882;50.952;4.366;2022-08-06T06:05:49;15.10;99.90
32428;DHT22;18882;50.952;4.366;2022-08-06T06:08:15;15.20;99.90
32428;DHT22;18882;50.952;4.366;2022-08-06T06:10:44;15.40;99.90
32428;DHT22;18882;50.952;4.366;2022-08-06T06:13:11;15.50;99.90
32428;DHT22;18882;50.952;4.366;2022-08-06T06:15:42;15.60;99.90
32428;DHT22;18882;50.952;4.366;2022-08-06T06:21:10;15.90;99.90
32428;DHT22;18882;50.952;4.366;2022-08-06T06:23:44;16.10;99.90
32428;DHT22;18882;50.952;4.366;2022-08-06T06:26:24;16.20;99.90
32428;DHT22;18882;50.952;4.366;2022-08-06T06:32:05;16.40;99.90
32428;DHT22;18882;50.952;4.366;2022-08-06T06:34:57;16.50;99.90
32428;DHT22;18882;50.952;4.366;2022-08-06T06:40:37;16.70;99.90
32428;DHT22;18882;50.952;4.366;2022-08-06T06:43:10;16.90;99.90
32428;DHT22;18882;50.952;4.366;2022-08-06T06:48:35;17.00;99.90
32428;DHT22;18882;50.952;4.366;2022-08-06T06:51:07;16.80;99.90
32428;DHT22;18882;50.952;4.366;2022-08-06T06:53:37;16.60;99.90
32428;DHT22;18882;50.952;4.366;2022-08-06T06:56:06;16.40;99.90
32428;DHT22;18882;50.952;4.366;2022-08-06T06:58:37;16.50;99.90
32428;DHT22;18882;50.952;4.366;2022-08-06T07:01:05;16.60;99.90
32428;DHT22;18882;50.952;4.366;2022-08-06T07:03:33;16.50;99.90
32428;DHT22;18882;50.952;4.366;2022-08-06T07:06:02;16.70;99.90
32428;DHT22;18882;50.952;4.366;2022-08-06T07:08:29;17.00;99.90
32428;DHT22;18882;50.952;4.366;2022-08-06T07:10:55;17.10;99.90
32428;DHT22;18882;50.952;4.366;2022-08-06T07:13:23;17.10;99.90
32428;DHT22;18882;50.952;4.366;2022-08-06T07:15:50;17.00;99.90
32428;DHT22;18882;50.952;4.366;2022-08-06T07:18:18;17.20;99.90
32428;DHT22;18882;50.952;4.366;2022-08-06T07:20:45;17.40;99.90
32428;DHT22;18882;50.952;4.366;2022-08-06T07:23:11;17.60;99.90
32428;DHT22;18882;50.952;4.366;2022-08-06T07:25:40;17.80;99.90
32428;DHT22;18882;50.952;4.366;2022-08-06T07:28:08;17.80;99.90
32428;DHT22;18882;50.952;4.366;2022-08-06T07:30:35;18.00;99.90
32428;DHT22;18882;50.952;4.366;2022-08-06T07:33:02;17.70;99.90
32428;DHT22;18882;50.952;4.366;2022-08-06T07:35:28;17.30;99.90
32428;DHT22;18882;50.952;4.366;2022-08-06T07:38:00;16.90;99.90
32428;DHT22;18882;50.952;4.366;2022-08-06T07:40:32;16.90;99.90
32428;DHT22;18882;50.952;4.366;2022-08-06T07:43:11;17.20;99.90
32428;DHT22;18882;50.952;4.366;2022-08-06T07:45:37;17.10;99.90
32428;DHT22;18882;50.952;4.366;2022-08-06T07:48:07;17.00;99.90
32428;DHT22;18882;50.952;4.366;2022-08-06T07:50:33;17.20;99.90
32428;DHT22;18882;50.952;4.366;2022-08-06T07:52:59;17.30;99.90
32428;DHT22;18882;50.952;4.366;2022-08-06T07:55:26;17.50;99.90
32428;DHT22;18882;50.952;4.366;2022-08-06T07:57:54;17.70;99.90
32428;DHT22;18882;50.952;4.366;2022-08-06T08:00:20;17.60;99.90
32428;DHT22;18882;50.952;4.366;2022-08-06T08:02:47;17.90;99.90
32428;DHT22;18882;50.952;4.366;2022-08-06T08:05:34;17.50;99.90
32428;DHT22;18882;50.952;4.366;2022-08-06T08:08:19;17.60;99.90
32428;DHT22;18882;50.952;4.366;2022-08-06T08:10:45;17.90;99.90
32428;DHT22;18882;50.952;4.366;2022-08-06T08:13:12;17.60;99.90
32428;DHT22;18882;50.952;4.366;2022-08-06T08:15:38;17.70;99.90
32428;DHT22;18882;50.952;4.366;2022-08-06T08:18:04;17.60;99.90
32428;DHT22;18882;50.952;4.366;2022-08-06T08:20:30;18.00;99.90
32428;DHT22;18882;50.952;4.366;2022-08-06T08:22:57;18.10;99.90
32428;DHT22;18882;50.952;4.366;2022-08-06T08:25:23;18.00;99.90
32428;DHT22;18882;50.952;4.366;2022-08-06T08:27:48;18.00;99.90
32428;DHT22;18882;50.952;4.366;2022-08-06T08:30:17;17.90;99.90
32428;DHT22;18882;50.952;4.366;2022-08-06T08:32:43;17.90;99.90
32428;DHT22;18882;50.952;4.366;2022-08-06T08:35:08;17.90;99.90
32428;DHT22;18882;50.952;4.366;2022-08-06T08:37:34;17.70;99.90
32428;DHT22;18882;50.952;4.366;2022-08-06T08:40:00;17.70;99.90
32428;DHT22;18882;50.952;4.366;2022-08-06T08:42:40;17.50;99.90
32428;DHT22;18882;50.952;4.366;2022-08-06T08:45:08;17.60;99.90
32428;DHT22;18882;50.952;4.366;2022-08-06T08:47:38;17.70;99.90
32428;DHT22;18882;50.952;4.366;2022-08-06T08:50:05;17.70;99.90
32428;DHT22;18882;50.952;4.366;2022-08-06T08:52:36;17.80;99.90
32428;DHT22;18882;50.952;4.366;2022-08-06T08:55:05;17.80;99.90
32428;DHT22;18882;50.952;4.366;2022-08-06T08:57:32;17.90;99.90
32428;DHT22;18882;50.952;4.366;2022-08-06T09:00:01;18.00;99.90
32428;DHT22;18882;50.952;4.366;2022-08-06T09:02:27;18.00;99.90
32428;DHT22;18882;50.952;4.366;2022-08-06T09:04:53;18.20;99.90
32428;DHT22;18882;50.952;4.366;2022-08-06T09:07:20;18.30;99.90
32428;DHT22;18882;50.952;4.366;2022-08-06T09:09:46;18.40;99.90
32428;DHT22;18882;50.952;4.366;2022-08-06T09:12:12;18.10;99.90
32428;DHT22;18882;50.952;4.366;2022-08-06T09:14:37;18.20;99.90
32428;DHT22;18882;50.952;4.366;2022-08-06T09:17:04;18.30;99.90
32428;DHT22;18882;50.952;4.366;2022-08-06T09:19:31;18.60;99.90
32428;DHT22;18882;50.952;4.366;2022-08-06T09:21:58;18.60;99.90
32428;DHT22;18882;50.952;4.366;2022-08-06T09:24:25;18.50;99.90
32428;DHT22;18882;50.952;4.366;2022-08-06T09:29:34;18.50;99.90
32428;DHT22;18882;50.952;4.366;2022-08-06T09:32:01;18.50;99.90
32428;DHT22;18882;50.952;4.366;2022-08-06T09:34:37;18.60;99.90
32428;DHT22;18882;50.952;4.366;2022-08-06T09:37:03;18.50;99.90
32428;DHT22;18882;50.952;4.366;2022-08-06T09:39:37;18.50;99.90
32428;DHT22;18882;50.952;4.366;2022-08-06T09:42:07;18.50;99.90
32428;DHT22;18882;50.952;4.366;2022-08-06T09:44:33;18.80;99.90
32428;DHT22;18882;50.952;4.366;2022-08-06T09:46:59;18.90;99.90
32428;DHT22;18882;50.952;4.366;2022-08-06T09:49:27;18.70;99.90
32428;DHT22;18882;50.952;4.366;2022-08-06T09:52:14;18.90;99.90
32428;DHT22;18882;50.952;4.366;2022-08-06T09:54:40;19.30;99.90
32428;DHT22;18882;50.952;4.366;2022-08-06T09:57:06;19.40;99.90
32428;DHT22;18882;50.952;4.366;2022-08-06T09:59:46;19.80;99.90
32428;DHT22;18882;50.952;4.366;2022-08-06T10:02:13;20.00;99.90
32428;DHT22;18882;50.952;4.366;2022-08-06T10:04:40;20.10;99.90
32428;DHT22;18882;50.952;4.366;2022-08-06T10:07:06;20.30;99.90
32428;DHT22;18882;50.952;4.366;2022-08-06T10:09:32;20.30;99.90
32428;DHT22;18882;50.952;4.366;2022-08-06T10:11:58;20.00;99.90
32428;DHT22;18882;50.952;4.366;2022-08-06T10:14:33;20.40;99.90
32428;DHT22;18882;50.952;4.366;2022-08-06T10:17:10;20.20;99.90
32428;DHT22;18882;50.952;4.366;2022-08-06T10:19:37;20.10;99.90
32428;DHT22;18882;50.952;4.366;2022-08-06T10:22:11;20.30;99.90
32428;DHT22;18882;50.952;4.366;2022-08-06T10:24:44;20.20;99.90
32428;DHT22;18882;50.952;4.366;2022-08-06T10:27:14;20.50;99.90
32428;DHT22;18882;50.952;4.366;2022-08-06T10:29:52;20.60;99.90
32428;DHT22;18882;50.952;4.366;2022-08-06T10:32:36;20.50;99.90
32428;DHT22;18882;50.952;4.366;2022-08-06T10:35:06;20.70;99.90
32428;DHT22;18882;50.952;4.366;2022-08-06T10:37:35;21.30;99.90
32428;DHT22;18882;50.952;4.366;2022-08-06T10:40:02;21.70;99.90
32428;DHT22;18882;50.952;4.366;2022-08-06T10:42:29;22.40;99.90
32428;DHT22;18882;50.952;4.366;2022-08-06T10:44:56;23.30;99.90
32428;DHT22;18882;50.952;4.366;2022-08-06T10:47:23;23.60;99.90
32428;DHT22;18882;50.952;4.366;2022-08-06T10:49:52;22.90;99.90
32428;DHT22;18882;50.952;4.366;2022-08-06T10:52:19;22.40;99.90
32428;DHT22;18882;50.952;4.366;2022-08-06T10:54:45;21.90;99.90
32428;DHT22;18882;50.952;4.366;2022-08-06T10:57:12;21.70;99.90
32428;DHT22;18882;50.952;4.366;2022-08-06T10:59:41;21.40;99.90
32428;DHT22;18882;50.952;4.366;2022-08-06T11:02:32;20.90;99.90
32428;DHT22;18882;50.952;4.366;2022-08-06T11:05:06;20.90;99.90
32428;DHT22;18882;50.952;4.366;2022-08-06T11:08:00;20.70;99.90
32428;DHT22;18882;50.952;4.366;2022-08-06T11:10:37;20.50;99.90
32428;DHT22;18882;50.952;4.366;2022-08-06T11:15:52;20.40;99.90
32428;DHT22;18882;50.952;4.366;2022-08-06T11:18:20;20.70;99.90
32428;DHT22;18882;50.952;4.366;2022-08-06T11:20:47;20.70;99.90
32428;DHT22;18882;50.952;4.366;2022-08-06T11:25:55;20.50;99.90
32428;DHT22;18882;50.952;4.366;2022-08-06T11:31:00;20.90;99.90
32428;DHT22;18882;50.952;4.366;2022-08-06T11:36:06;21.10;99.90
32428;DHT22;18882;50.952;4.366;2022-08-06T11:41:29;21.00;99.90
32428;DHT22;18882;50.952;4.366;2022-08-06T11:59:44;21.60;99.90
32428;DHT22;18882;50.952;4.366;2022-08-06T12:02:17;21.60;99.90
32428;DHT22;18882;50.952;4.366;2022-08-06T12:04:59;21.50;99.90
32428;DHT22;18882;50.952;4.366;2022-08-06T12:07:32;21.60;99.90
32428;DHT22;18882;50.952;4.366;2022-08-06T12:20:40;22.20;99.90
32428;DHT22;18882;50.952;4.366;2022-08-06T12:23:16;22.00;99.90
32428;DHT22;18882;50.952;4.366;2022-08-06T12:25:44;21.70;99.90
32428;DHT22;18882;50.952;4.366;2022-08-06T12:28:12;21.80;99.90
32428;DHT22;18882;50.952;4.366;2022-08-06T12:30:46;22.00;99.90
32428;DHT22;18882;50.952;4.366;2022-08-06T12:33:12;22.30;99.90
32428;DHT22;18882;50.952;4.366;2022-08-06T12:36:08;22.60;99.90
32428;DHT22;18882;50.952;4.366;2022-08-06T12:38:34;21.90;99.90
32428;DHT22;18882;50.952;4.366;2022-08-06T12:41:07;21.70;99.90
32428;DHT22;18882;50.952;4.366;2022-08-06T12:43:35;21.90;99.90
32428;DHT22;18882;50.952;4.366;2022-08-06T12:46:03;22.30;99.90
32428;DHT22;18882;50.952;4.366;2022-08-06T12:48:29;22.70;99.90
32428;DHT22;18882;50.952;4.366;2022-08-06T12:51:10;23.10;99.90
32428;DHT22;18882;50.952;4.366;2022-08-06T12:53:38;23.00;99.90
32428;DHT22;18882;50.952;4.366;2022-08-06T12:56:05;22.60;99.90
32428;DHT22;18882;50.952;4.366;2022-08-06T12:58:34;22.10;99.90
32428;DHT22;18882;50.952;4.366;2022-08-06T13:01:01;21.90;99.90
32428;DHT22;18882;50.952;4.366;2022-08-06T13:03:28;21.80;99.90
32428;DHT22;18882;50.952;4.366;2022-08-06T13:05:58;21.60;99.90
32428;DHT22;18882;50.952;4.366;2022-08-06T13:08:24;21.40;99.90
32428;DHT22;18882;50.952;4.366;2022-08-06T13:10:52;21.40;99.90
32428;DHT22;18882;50.952;4.366;2022-08-06T13:13:19;21.20;99.90
32428;DHT22;18882;50.952;4.366;2022-08-06T13:16:09;21.40;99.90
32428;DHT22;18882;50.952;4.366;2022-08-06T13:18:37;21.50;99.90
32428;DHT22;18882;50.952;4.366;2022-08-06T13:21:04;21.90;99.90
32428;DHT22;18882;50.952;4.366;2022-08-06T13:23:48;22.10;99.60
32428;DHT22;18882;50.952;4.366;2022-08-06T13:26:34;22.50;99.60
32428;DHT22;18882;50.952;4.366;2022-08-06T13:29:22;22.20;99.20
32428;DHT22;18882;50.952;4.366;2022-08-06T13:31:58;22.50;99.60
32428;DHT22;18882;50.952;4.366;2022-08-06T13:34:24;22.40;99.40
32428;DHT22;18882;50.952;4.366;2022-08-06T13:36:57;22.20;99.50
32428;DHT22;18882;50.952;4.366;2022-08-06T13:39:30;22.00;99.70
32428;DHT22;18882;50.952;4.366;2022-08-06T13:44:31;21.60;99.40
32428;DHT22;18882;50.952;4.366;2022-08-06T13:46:57;21.40;99.90
32428;DHT22;18882;50.952;4.366;2022-08-06T13:49:23;21.40;99.90
32428;DHT22;18882;50.952;4.366;2022-08-06T13:51:48;21.30;99.90
32428;DHT22;18882;50.952;4.366;2022-08-06T13:54:14;21.30;99.90
32428;DHT22;18882;50.952;4.366;2022-08-06T13:56:40;21.60;99.90
32428;DHT22;18882;50.952;4.366;2022-08-06T13:59:06;22.10;99.10
32428;DHT22;18882;50.952;4.366;2022-08-06T14:01:31;22.40;99.90
32428;DHT22;18882;50.952;4.366;2022-08-06T14:03:57;22.70;99.40
32428;DHT22;18882;50.952;4.366;2022-08-06T14:06:23;22.40;98.80
32428;DHT22;18882;50.952;4.366;2022-08-06T14:08:49;22.30;98.50
32428;DHT22;18882;50.952;4.366;2022-08-06T14:11:14;22.00;99.50
32428;DHT22;18882;50.952;4.366;2022-08-06T14:13:40;21.70;99.50
32428;DHT22;18882;50.952;4.366;2022-08-06T14:16:06;21.70;99.60
32428;DHT22;18882;50.952;4.366;2022-08-06T14:18:31;21.40;99.60
32428;DHT22;18882;50.952;4.366;2022-08-06T14:20:57;21.40;99.60
32428;DHT22;18882;50.952;4.366;2022-08-06T14:23:23;21.40;99.90
32428;DHT22;18882;50.952;4.366;2022-08-06T14:25:49;21.50;99.40
32428;DHT22;18882;50.952;4.366;2022-08-06T14:28:14;21.70;98.20
32428;DHT22;18882;50.952;4.366;2022-08-06T14:30:42;21.90;98.40
32428;DHT22;18882;50.952;4.366;2022-08-06T14:33:08;22.20;97.90
32428;DHT22;18882;50.952;4.366;2022-08-06T14:35:35;22.40;98.60
32428;DHT22;18882;50.952;4.366;2022-08-06T14:38:03;22.30;98.00
32428;DHT22;18882;50.952;4.366;2022-08-06T14:40:29;22.20;98.90
32428;DHT22;18882;50.952;4.366;2022-08-06T14:43:30;22.10;99.20
32428;DHT22;18882;50.952;4.366;2022-08-06T14:46:14;22.00;99.10
32428;DHT22;18882;50.952;4.366;2022-08-06T14:48:40;22.10;99.50
32428;DHT22;18882;50.952;4.366;2022-08-06T14:51:05;22.10;99.30
32428;DHT22;18882;50.952;4.366;2022-08-06T14:53:31;21.90;99.10
32428;DHT22;18882;50.952;4.366;2022-08-06T14:55:57;21.80;99.20
32428;DHT22;18882;50.952;4.366;2022-08-06T14:58:22;21.60;99.10
32428;DHT22;18882;50.952;4.366;2022-08-06T15:00:48;21.60;99.40
32428;DHT22;18882;50.952;4.366;2022-08-06T15:03:17;21.60;99.30
32428;DHT22;18882;50.952;4.366;2022-08-06T15:05:43;21.60;99.60
32428;DHT22;18882;50.952;4.366;2022-08-06T15:08:09;21.60;99.90
32428;DHT22;18882;50.952;4.366;2022-08-06T15:10:35;21.70;99.90
32428;DHT22;18882;50.952;4.366;2022-08-06T15:13:01;21.70;99.90
32428;DHT22;18882;50.952;4.366;2022-08-06T15:15:27;21.90;99.60
32428;DHT22;18882;50.952;4.366;2022-08-06T15:17:53;22.10;98.90
32428;DHT22;18882;50.952;4.366;2022-08-06T15:20:18;22.40;98.50
32428;DHT22;18882;50.952;4.366;2022-08-06T15:22:44;22.30;97.90
32428;DHT22;18882;50.952;4.366;2022-08-06T15:25:10;22.30;98.20
32428;DHT22;18882;50.952;4.366;2022-08-06T15:27:35;22.50;98.40
32428;DHT22;18882;50.952;4.366;2022-08-06T15:30:01;22.40;98.60
32428;DHT22;18882;50.952;4.366;2022-08-06T15:32:26;22.10;98.30
32428;DHT22;18882;50.952;4.366;2022-08-06T15:34:52;22.10;98.80
32428;DHT22;18882;50.952;4.366;2022-08-06T15:37:18;21.90;99.00
32428;DHT22;18882;50.952;4.366;2022-08-06T15:39:45;21.70;99.30
32428;DHT22;18882;50.952;4.366;2022-08-06T15:42:11;21.50;99.80
32428;DHT22;18882;50.952;4.366;2022-08-06T15:44:36;21.40;98.90
32428;DHT22;18882;50.952;4.366;2022-08-06T15:47:04;21.30;99.50
32428;DHT22;18882;50.952;4.366;2022-08-06T15:49:30;21.30;99.20
32428;DHT22;18882;50.952;4.366;2022-08-06T15:51:55;21.20;99.40
32428;DHT22;18882;50.952;4.366;2022-08-06T15:54:21;21.20;99.10
32428;DHT22;18882;50.952;4.366;2022-08-06T15:56:47;21.30;99.30
32428;DHT22;18882;50.952;4.366;2022-08-06T15:59:13;21.30;98.90
32428;DHT22;18882;50.952;4.366;2022-08-06T16:01:39;21.50;98.90
32428;DHT22;18882;50.952;4.366;2022-08-06T16:04:06;21.80;99.10
32428;DHT22;18882;50.952;4.366;2022-08-06T16:06:32;22.20;98.10
32428;DHT22;18882;50.952;4.366;2022-08-06T16:08:58;22.40;97.10
32428;DHT22;18882;50.952;4.366;2022-08-06T16:11:24;22.50;96.90
32428;DHT22;18882;50.952;4.366;2022-08-06T16:13:50;22.50;97.10
32428;DHT22;18882;50.952;4.366;2022-08-06T16:16:16;22.50;98.10
32428;DHT22;18882;50.952;4.366;2022-08-06T16:18:41;22.60;98.40
32428;DHT22;18882;50.952;4.366;2022-08-06T16:21:08;22.70;98.00
32428;DHT22;18882;50.952;4.366;2022-08-06T16:23:34;22.60;98.00
32428;DHT22;18882;50.952;4.366;2022-08-06T16:26:00;22.50;98.30
32428;DHT22;18882;50.952;4.366;2022-08-06T16:28:25;22.50;98.30
32428;DHT22;18882;50.952;4.366;2022-08-06T16:30:51;22.50;98.30
32428;DHT22;18882;50.952;4.366;2022-08-06T16:33:17;22.40;98.20
32428;DHT22;18882;50.952;4.366;2022-08-06T16:35:43;22.30;98.30
32428;DHT22;18882;50.952;4.366;2022-08-06T16:38:10;22.20;98.70
32428;DHT22;18882;50.952;4.366;2022-08-06T16:40:36;22.10;99.10
32428;DHT22;18882;50.952;4.366;2022-08-06T16:43:02;21.80;99.10
32428;DHT22;18882;50.952;4.366;2022-08-06T16:45:27;21.70;99.40
32428;DHT22;18882;50.952;4.366;2022-08-06T16:47:54;21.70;99.70